French Settlement, Louisiana
Current Conditions -  °F | °C
As of 9:35 PM on Saturday 22 Nov 2014 (Local Time) from KL38 Reporting Station
Overcast Overcast  
Wind Chill: 64°   Ceiling: 700
Heat Index: 64°   Visibility: 7mi
Dew Point: 64°   Wind: 6mph
Humidity: 100%   Direction: 110°ESE
Pressure: 29.94"   Gusts: NA
Location:  30.3°N, 90.8°W
Report Text: KL38 230335Z AUTO 11005KT 7SM OVC007 18/18 A2994 RMK AO2 T01750175
Loading
Personal Weather Stations






























Interactive Weather Map New forecast layout! Learn more

10-Day Weather Forecast

Advertisements
Track Severe Weather on mobile